Agate, North Dakota
Current Conditions -  °F | °C
As of 7:35 AM on Saturday 25 Oct 2014 (Local Time) from K9D7 Reporting Station
Clear Clear  
Wind Chill: 24°   Ceiling: Unl
Heat Index: 32°   Visibility: 10mi
Dew Point: 30°   Wind: 10mph
Humidity: 93%   Direction: 270°W
Pressure: 30.08"   Gusts: NA
Location:  48.62°N, 99.5°W
Report Text: K9D7 251235Z AUTO 27009KT 10SM CLR 00/M01 A3008 RMK AO2
Loading
Personal Weather Stations






























Interactive Weather Map
Tropical Storm Tracking
New forecast layout! Learn more

10-Day Weather Forecast

Advertisements
Track Severe Weather on mobile